sensor_id;sensor_type;location;lat;lon;timestamp;P1;durP1;ratioP1;P2;durP2;ratioP2
4569;SDS011;2297;51.442;6.996;2023-04-24T00:02:16;1.30;;;1.20;;
4569;SDS011;2297;51.442;6.996;2023-04-24T00:04:45;1.15;;;1.05;;
4569;SDS011;2297;51.442;6.996;2023-04-24T00:07:11;1.35;;;1.10;;
4569;SDS011;2297;51.442;6.996;2023-04-24T00:09:39;1.15;;;1.05;;
4569;SDS011;2297;51.442;6.996;2023-04-24T00:12:06;1.95;;;1.10;;
4569;SDS011;2297;51.442;6.996;2023-04-24T00:14:32;2.75;;;1.50;;
4569;SDS011;2297;51.442;6.996;2023-04-24T00:16:59;2.08;;;1.30;;
4569;SDS011;2297;51.442;6.996;2023-04-24T00:19:26;2.90;;;1.35;;
4569;SDS011;2297;51.442;6.996;2023-04-24T00:21:54;2.70;;;1.30;;
4569;SDS011;2297;51.442;6.996;2023-04-24T00:24:21;2.22;;;1.10;;
4569;SDS011;2297;51.442;6.996;2023-04-24T00:26:48;1.73;;;1.50;;
4569;SDS011;2297;51.442;6.996;2023-04-24T00:29:14;1.55;;;1.38;;
4569;SDS011;2297;51.442;6.996;2023-04-24T00:31:41;1.52;;;1.40;;
4569;SDS011;2297;51.442;6.996;2023-04-24T00:34:07;1.85;;;1.40;;
4569;SDS011;2297;51.442;6.996;2023-04-24T00:36:35;2.88;;;1.50;;
4569;SDS011;2297;51.442;6.996;2023-04-24T00:39:03;1.90;;;1.55;;
4569;SDS011;2297;51.442;6.996;2023-04-24T00:41:30;3.50;;;1.40;;
4569;SDS011;2297;51.442;6.996;2023-04-24T00:43:57;1.80;;;1.45;;
4569;SDS011;2297;51.442;6.996;2023-04-24T00:46:24;1.73;;;1.30;;
4569;SDS011;2297;51.442;6.996;2023-04-24T00:48:51;3.75;;;1.58;;
4569;SDS011;2297;51.442;6.996;2023-04-24T00:51:18;3.50;;;1.95;;
4569;SDS011;2297;51.442;6.996;2023-04-24T00:53:46;4.70;;;1.85;;
4569;SDS011;2297;51.442;6.996;2023-04-24T00:56:14;1.50;;;1.40;;
4569;SDS011;2297;51.442;6.996;2023-04-24T00:58:41;1.92;;;1.50;;
4569;SDS011;2297;51.442;6.996;2023-04-24T01:01:08;2.28;;;1.63;;
4569;SDS011;2297;51.442;6.996;2023-04-24T01:03:36;3.13;;;1.65;;
4569;SDS011;2297;51.442;6.996;2023-04-24T01:06:06;3.28;;;1.80;;
4569;SDS011;2297;51.442;6.996;2023-04-24T01:08:35;2.35;;;1.95;;
4569;SDS011;2297;51.442;6.996;2023-04-24T01:11:03;4.38;;;1.58;;
4569;SDS011;2297;51.442;6.996;2023-04-24T01:13:32;2.92;;;1.80;;
4569;SDS011;2297;51.442;6.996;2023-04-24T01:15:59;2.40;;;1.80;;
4569;SDS011;2297;51.442;6.996;2023-04-24T01:18:27;2.30;;;1.80;;
4569;SDS011;2297;51.442;6.996;2023-04-24T01:20:54;2.25;;;1.95;;
4569;SDS011;2297;51.442;6.996;2023-04-24T01:23:25;2.35;;;1.98;;
4569;SDS011;2297;51.442;6.996;2023-04-24T01:25:52;6.00;;;2.60;;
4569;SDS011;2297;51.442;6.996;2023-04-24T01:28:19;5.30;;;2.38;;
4569;SDS011;2297;51.442;6.996;2023-04-24T01:30:46;4.32;;;2.60;;
4569;SDS011;2297;51.442;6.996;2023-04-24T01:33:12;4.22;;;2.60;;
4569;SDS011;2297;51.442;6.996;2023-04-24T01:35:39;3.67;;;3.10;;
4569;SDS011;2297;51.442;6.996;2023-04-24T01:38:06;3.70;;;2.65;;
4569;SDS011;2297;51.442;6.996;2023-04-24T01:40:34;4.43;;;2.88;;
4569;SDS011;2297;51.442;6.996;2023-04-24T01:43:01;5.03;;;3.60;;
4569;SDS011;2297;51.442;6.996;2023-04-24T01:45:28;6.40;;;3.88;;
4569;SDS011;2297;51.442;6.996;2023-04-24T01:47:54;5.03;;;3.55;;
4569;SDS011;2297;51.442;6.996;2023-04-24T01:50:22;4.80;;;3.70;;
4569;SDS011;2297;51.442;6.996;2023-04-24T01:52:49;5.70;;;3.75;;
4569;SDS011;2297;51.442;6.996;2023-04-24T01:55:15;5.43;;;3.47;;
4569;SDS011;2297;51.442;6.996;2023-04-24T01:57:43;4.30;;;3.20;;
4569;SDS011;2297;51.442;6.996;2023-04-24T02:00:10;4.30;;;3.40;;
4569;SDS011;2297;51.442;6.996;2023-04-24T02:02:38;5.97;;;3.90;;
4569;SDS011;2297;51.442;6.996;2023-04-24T02:05:06;4.85;;;3.63;;
4569;SDS011;2297;51.442;6.996;2023-04-24T02:07:33;5.88;;;3.65;;
4569;SDS011;2297;51.442;6.996;2023-04-24T02:10:00;6.60;;;4.53;;
4569;SDS011;2297;51.442;6.996;2023-04-24T02:12:26;6.68;;;4.05;;
4569;SDS011;2297;51.442;6.996;2023-04-24T02:14:54;9.05;;;4.38;;
4569;SDS011;2297;51.442;6.996;2023-04-24T02:17:21;8.07;;;4.80;;
4569;SDS011;2297;51.442;6.996;2023-04-24T02:19:48;5.95;;;4.22;;
4569;SDS011;2297;51.442;6.996;2023-04-24T02:22:14;7.60;;;5.10;;
4569;SDS011;2297;51.442;6.996;2023-04-24T02:24:41;11.45;;;5.38;;
4569;SDS011;2297;51.442;6.996;2023-04-24T02:27:08;9.90;;;5.82;;
4569;SDS011;2297;51.442;6.996;2023-04-24T02:29:35;9.05;;;6.35;;
4569;SDS011;2297;51.442;6.996;2023-04-24T02:32:03;8.88;;;5.68;;
4569;SDS011;2297;51.442;6.996;2023-04-24T02:34:29;10.75;;;5.93;;
4569;SDS011;2297;51.442;6.996;2023-04-24T02:36:56;10.45;;;6.10;;
4569;SDS011;2297;51.442;6.996;2023-04-24T02:39:23;13.30;;;7.00;;
4569;SDS011;2297;51.442;6.996;2023-04-24T02:41:50;11.93;;;6.55;;
4569;SDS011;2297;51.442;6.996;2023-04-24T02:44:16;11.65;;;7.13;;
4569;SDS011;2297;51.442;6.996;2023-04-24T02:46:43;10.32;;;6.60;;
4569;SDS011;2297;51.442;6.996;2023-04-24T02:49:11;10.73;;;7.03;;
4569;SDS011;2297;51.442;6.996;2023-04-24T02:51:38;14.75;;;7.97;;
4569;SDS011;2297;51.442;6.996;2023-04-24T02:54:06;13.52;;;7.45;;
4569;SDS011;2297;51.442;6.996;2023-04-24T02:56:33;13.25;;;7.50;;
4569;SDS011;2297;51.442;6.996;2023-04-24T02:59:00;11.82;;;7.47;;
4569;SDS011;2297;51.442;6.996;2023-04-24T03:01:26;12.82;;;8.07;;
4569;SDS011;2297;51.442;6.996;2023-04-24T03:03:53;10.35;;;7.05;;
4569;SDS011;2297;51.442;6.996;2023-04-24T03:06:21;15.98;;;8.15;;
4569;SDS011;2297;51.442;6.996;2023-04-24T03:08:47;15.95;;;7.78;;
4569;SDS011;2297;51.442;6.996;2023-04-24T03:11:14;13.52;;;8.57;;
4569;SDS011;2297;51.442;6.996;2023-04-24T03:13:41;15.90;;;8.25;;
4569;SDS011;2297;51.442;6.996;2023-04-24T03:16:07;16.20;;;8.73;;
4569;SDS011;2297;51.442;6.996;2023-04-24T03:18:34;20.13;;;9.85;;
4569;SDS011;2297;51.442;6.996;2023-04-24T03:21:00;15.93;;;8.35;;
4569;SDS011;2297;51.442;6.996;2023-04-24T03:25:57;17.15;;;8.70;;
4569;SDS011;2297;51.442;6.996;2023-04-24T03:28:24;15.20;;;8.70;;
4569;SDS011;2297;51.442;6.996;2023-04-24T03:30:51;18.80;;;10.68;;
4569;SDS011;2297;51.442;6.996;2023-04-24T03:33:17;15.98;;;9.90;;
4569;SDS011;2297;51.442;6.996;2023-04-24T03:35:44;17.17;;;9.35;;
4569;SDS011;2297;51.442;6.996;2023-04-24T03:38:11;18.67;;;10.05;;
4569;SDS011;2297;51.442;6.996;2023-04-24T03:40:39;16.20;;;9.38;;
4569;SDS011;2297;51.442;6.996;2023-04-24T03:43:05;18.77;;;9.95;;
4569;SDS011;2297;51.442;6.996;2023-04-24T03:45:32;18.27;;;9.32;;
4569;SDS011;2297;51.442;6.996;2023-04-24T03:47:58;15.80;;;8.75;;
4569;SDS011;2297;51.442;6.996;2023-04-24T03:50:25;20.10;;;9.27;;
4569;SDS011;2297;51.442;6.996;2023-04-24T03:52:54;15.07;;;9.32;;
4569;SDS011;2297;51.442;6.996;2023-04-24T03:55:20;17.75;;;9.55;;
4569;SDS011;2297;51.442;6.996;2023-04-24T03:57:48;20.50;;;9.27;;
4569;SDS011;2297;51.442;6.996;2023-04-24T04:00:15;13.60;;;8.27;;
4569;SDS011;2297;51.442;6.996;2023-04-24T04:02:43;18.42;;;8.90;;
4569;SDS011;2297;51.442;6.996;2023-04-24T04:05:10;18.27;;;9.20;;
4569;SDS011;2297;51.442;6.996;2023-04-24T04:07:36;21.00;;;9.50;;
4569;SDS011;2297;51.442;6.996;2023-04-24T04:10:03;15.45;;;8.93;;
4569;SDS011;2297;51.442;6.996;2023-04-24T04:12:32;16.02;;;9.25;;
4569;SDS011;2297;51.442;6.996;2023-04-24T04:15:00;13.95;;;8.18;;
4569;SDS011;2297;51.442;6.996;2023-04-24T04:17:26;14.38;;;8.77;;
4569;SDS011;2297;51.442;6.996;2023-04-24T04:19:54;17.50;;;8.32;;
4569;SDS011;2297;51.442;6.996;2023-04-24T04:22:21;15.02;;;8.80;;
4569;SDS011;2297;51.442;6.996;2023-04-24T04:24:48;14.82;;;8.48;;
4569;SDS011;2297;51.442;6.996;2023-04-24T04:27:16;14.05;;;7.88;;
4569;SDS011;2297;51.442;6.996;2023-04-24T04:29:43;15.57;;;8.13;;
4569;SDS011;2297;51.442;6.996;2023-04-24T04:32:11;15.63;;;8.73;;
4569;SDS011;2297;51.442;6.996;2023-04-24T04:34:38;15.35;;;8.30;;
4569;SDS011;2297;51.442;6.996;2023-04-24T04:37:04;15.30;;;9.15;;
4569;SDS011;2297;51.442;6.996;2023-04-24T04:39:31;20.20;;;9.43;;
4569;SDS011;2297;51.442;6.996;2023-04-24T04:41:58;12.95;;;8.20;;
4569;SDS011;2297;51.442;6.996;2023-04-24T04:44:25;14.07;;;8.85;;
4569;SDS011;2297;51.442;6.996;2023-04-24T04:46:53;15.25;;;8.38;;
4569;SDS011;2297;51.442;6.996;2023-04-24T04:49:22;14.18;;;8.48;;
4569;SDS011;2297;51.442;6.996;2023-04-24T04:51:49;12.90;;;8.05;;
4569;SDS011;2297;51.442;6.996;2023-04-24T04:54:16;20.02;;;9.18;;
4569;SDS011;2297;51.442;6.996;2023-04-24T04:56:43;13.27;;;8.45;;
4569;SDS011;2297;51.442;6.996;2023-04-24T04:59:10;12.50;;;8.07;;
4569;SDS011;2297;51.442;6.996;2023-04-24T05:01:37;13.25;;;7.68;;
4569;SDS011;2297;51.442;6.996;2023-04-24T05:04:04;12.00;;;7.85;;
4569;SDS011;2297;51.442;6.996;2023-04-24T05:06:32;15.30;;;7.85;;
4569;SDS011;2297;51.442;6.996;2023-04-24T05:08:59;15.27;;;8.55;;
4569;SDS011;2297;51.442;6.996;2023-04-24T05:11:25;13.50;;;8.02;;
4569;SDS011;2297;51.442;6.996;2023-04-24T05:13:52;12.20;;;7.78;;
4569;SDS011;2297;51.442;6.996;2023-04-24T05:16:19;17.80;;;7.75;;
4569;SDS011;2297;51.442;6.996;2023-04-24T05:18:45;13.95;;;7.43;;
4569;SDS011;2297;51.442;6.996;2023-04-24T05:21:12;12.20;;;7.25;;
4569;SDS011;2297;51.442;6.996;2023-04-24T05:23:40;11.05;;;7.57;;
4569;SDS011;2297;51.442;6.996;2023-04-24T05:26:07;13.30;;;7.93;;
4569;SDS011;2297;51.442;6.996;2023-04-24T05:28:33;16.48;;;8.85;;
4569;SDS011;2297;51.442;6.996;2023-04-24T05:31:01;12.25;;;7.38;;
4569;SDS011;2297;51.442;6.996;2023-04-24T05:33:28;15.52;;;7.88;;
4569;SDS011;2297;51.442;6.996;2023-04-24T05:35:55;11.40;;;7.53;;
4569;SDS011;2297;51.442;6.996;2023-04-24T05:38:21;15.85;;;7.97;;
4569;SDS011;2297;51.442;6.996;2023-04-24T05:40:49;14.00;;;8.10;;
4569;SDS011;2297;51.442;6.996;2023-04-24T05:43:16;12.85;;;8.00;;
4569;SDS011;2297;51.442;6.996;2023-04-24T05:45:43;13.98;;;8.38;;
4569;SDS011;2297;51.442;6.996;2023-04-24T05:48:09;14.20;;;8.38;;
4569;SDS011;2297;51.442;6.996;2023-04-24T05:50:36;15.13;;;8.38;;
4569;SDS011;2297;51.442;6.996;2023-04-24T05:53:03;12.75;;;7.97;;
4569;SDS011;2297;51.442;6.996;2023-04-24T05:55:32;12.38;;;7.97;;
4569;SDS011;2297;51.442;6.996;2023-04-24T05:58:00;14.52;;;7.95;;
4569;SDS011;2297;51.442;6.996;2023-04-24T06:00:26;11.98;;;8.10;;
4569;SDS011;2297;51.442;6.996;2023-04-24T06:02:53;11.65;;;8.30;;
4569;SDS011;2297;51.442;6.996;2023-04-24T06:05:20;15.15;;;8.55;;
4569;SDS011;2297;51.442;6.996;2023-04-24T06:07:47;13.15;;;7.40;;
4569;SDS011;2297;51.442;6.996;2023-04-24T06:10:13;11.25;;;7.60;;
4569;SDS011;2297;51.442;6.996;2023-04-24T06:12:40;12.05;;;7.10;;
4569;SDS011;2297;51.442;6.996;2023-04-24T06:15:09;11.77;;;7.68;;
4569;SDS011;2297;51.442;6.996;2023-04-24T06:17:36;10.02;;;6.75;;
4569;SDS011;2297;51.442;6.996;2023-04-24T06:20:03;11.35;;;7.60;;
4569;SDS011;2297;51.442;6.996;2023-04-24T06:22:31;11.40;;;7.28;;
4569;SDS011;2297;51.442;6.996;2023-04-24T06:24:58;10.07;;;7.15;;
4569;SDS011;2297;51.442;6.996;2023-04-24T06:27:25;10.65;;;6.70;;
4569;SDS011;2297;51.442;6.996;2023-04-24T06:29:52;10.77;;;6.80;;
4569;SDS011;2297;51.442;6.996;2023-04-24T06:32:21;11.88;;;7.18;;
4569;SDS011;2297;51.442;6.996;2023-04-24T06:34:48;9.80;;;6.40;;
4569;SDS011;2297;51.442;6.996;2023-04-24T06:37:15;11.43;;;6.28;;
4569;SDS011;2297;51.442;6.996;2023-04-24T06:39:42;10.77;;;7.18;;
4569;SDS011;2297;51.442;6.996;2023-04-24T06:42:08;12.65;;;6.75;;
4569;SDS011;2297;51.442;6.996;2023-04-24T06:44:35;11.05;;;6.68;;
4569;SDS011;2297;51.442;6.996;2023-04-24T06:47:05;12.20;;;6.70;;
4569;SDS011;2297;51.442;6.996;2023-04-24T06:49:34;11.02;;;6.65;;
4569;SDS011;2297;51.442;6.996;2023-04-24T06:52:00;10.48;;;6.18;;
4569;SDS011;2297;51.442;6.996;2023-04-24T06:54:27;10.05;;;6.50;;
4569;SDS011;2297;51.442;6.996;2023-04-24T06:56:54;10.23;;;6.63;;
4569;SDS011;2297;51.442;6.996;2023-04-24T06:59:22;9.00;;;6.45;;
4569;SDS011;2297;51.442;6.996;2023-04-24T07:01:49;9.18;;;6.40;;
4569;SDS011;2297;51.442;6.996;2023-04-24T07:04:16;10.45;;;6.10;;
4569;SDS011;2297;51.442;6.996;2023-04-24T07:06:44;9.30;;;5.90;;
4569;SDS011;2297;51.442;6.996;2023-04-24T07:09:12;6.78;;;5.07;;
4569;SDS011;2297;51.442;6.996;2023-04-24T07:11:40;9.18;;;4.68;;
4569;SDS011;2297;51.442;6.996;2023-04-24T07:14:07;6.57;;;4.85;;
4569;SDS011;2297;51.442;6.996;2023-04-24T07:16:35;7.20;;;4.47;;
4569;SDS011;2297;51.442;6.996;2023-04-24T07:19:01;6.30;;;4.20;;
4569;SDS011;2297;51.442;6.996;2023-04-24T07:21:28;7.32;;;4.97;;
4569;SDS011;2297;51.442;6.996;2023-04-24T07:23:57;6.75;;;4.15;;
4569;SDS011;2297;51.442;6.996;2023-04-24T07:26:24;4.78;;;3.70;;
4569;SDS011;2297;51.442;6.996;2023-04-24T07:28:51;5.03;;;3.80;;
4569;SDS011;2297;51.442;6.996;2023-04-24T07:31:18;5.93;;;3.72;;
4569;SDS011;2297;51.442;6.996;2023-04-24T07:33:44;3.78;;;2.97;;
4569;SDS011;2297;51.442;6.996;2023-04-24T07:36:11;4.70;;;2.90;;
4569;SDS011;2297;51.442;6.996;2023-04-24T07:38:42;4.13;;;2.78;;
4569;SDS011;2297;51.442;6.996;2023-04-24T07:41:10;3.50;;;2.88;;
4569;SDS011;2297;51.442;6.996;2023-04-24T07:43:36;3.53;;;2.20;;
4569;SDS011;2297;51.442;6.996;2023-04-24T07:46:03;2.70;;;2.08;;
4569;SDS011;2297;51.442;6.996;2023-04-24T07:48:30;3.30;;;1.98;;
4569;SDS011;2297;51.442;6.996;2023-04-24T07:50:56;2.75;;;1.90;;
4569;SDS011;2297;51.442;6.996;2023-04-24T07:53:23;1.70;;;1.40;;
4569;SDS011;2297;51.442;6.996;2023-04-24T07:55:50;1.95;;;1.50;;
4569;SDS011;2297;51.442;6.996;2023-04-24T07:58:18;1.33;;;1.23;;
4569;SDS011;2297;51.442;6.996;2023-04-24T08:00:44;0.95;;;0.95;;
4569;SDS011;2297;51.442;6.996;2023-04-24T08:03:11;0.80;;;0.80;;
4569;SDS011;2297;51.442;6.996;2023-04-24T08:05:38;1.70;;;1.00;;
4569;SDS011;2297;51.442;6.996;2023-04-24T08:08:05;0.90;;;0.90;;
4569;SDS011;2297;51.442;6.996;2023-04-24T08:10:31;2.25;;;1.00;;
4569;SDS011;2297;51.442;6.996;2023-04-24T08:12:58;2.20;;;1.00;;
4569;SDS011;2297;51.442;6.996;2023-04-24T08:15:26;0.93;;;0.80;;
4569;SDS011;2297;51.442;6.996;2023-04-24T08:17:53;1.15;;;0.95;;
4569;SDS011;2297;51.442;6.996;2023-04-24T08:20:20;0.85;;;0.85;;
4569;SDS011;2297;51.442;6.996;2023-04-24T08:22:47;0.73;;;0.70;;
4569;SDS011;2297;51.442;6.996;2023-04-24T08:25:13;1.88;;;1.25;;
4569;SDS011;2297;51.442;6.996;2023-04-24T08:27:40;1.40;;;1.30;;
4569;SDS011;2297;51.442;6.996;2023-04-24T08:30:07;1.23;;;1.10;;
4569;SDS011;2297;51.442;6.996;2023-04-24T08:32:36;1.63;;;1.23;;
4569;SDS011;2297;51.442;6.996;2023-04-24T08:35:03;1.52;;;1.20;;
4569;SDS011;2297;51.442;6.996;2023-04-24T08:37:30;1.17;;;1.08;;
4569;SDS011;2297;51.442;6.996;2023-04-24T08:39:57;1.27;;;1.15;;
4569;SDS011;2297;51.442;6.996;2023-04-24T08:42:24;2.13;;;1.50;;
4569;SDS011;2297;51.442;6.996;2023-04-24T08:44:54;2.30;;;2.10;;
4569;SDS011;2297;51.442;6.996;2023-04-24T08:47:21;2.92;;;1.98;;
4569;SDS011;2297;51.442;6.996;2023-04-24T08:49:51;5.18;;;2.22;;
4569;SDS011;2297;51.442;6.996;2023-04-24T08:52:18;3.28;;;2.00;;
4569;SDS011;2297;51.442;6.996;2023-04-24T08:54:46;2.80;;;2.25;;
4569;SDS011;2297;51.442;6.996;2023-04-24T08:57:14;2.45;;;2.17;;
4569;SDS011;2297;51.442;6.996;2023-04-24T08:59:41;2.63;;;2.20;;
4569;SDS011;2297;51.442;6.996;2023-04-24T09:02:09;3.92;;;1.90;;
4569;SDS011;2297;51.442;6.996;2023-04-24T09:04:37;3.30;;;1.80;;
4569;SDS011;2297;51.442;6.996;2023-04-24T09:07:05;3.28;;;2.00;;
4569;SDS011;2297;51.442;6.996;2023-04-24T09:09:33;2.28;;;1.65;;
4569;SDS011;2297;51.442;6.996;2023-04-24T09:12:01;4.32;;;2.03;;
4569;SDS011;2297;51.442;6.996;2023-04-24T09:14:28;3.13;;;1.80;;
4569;SDS011;2297;51.442;6.996;2023-04-24T09:16:57;1.88;;;1.50;;
4569;SDS011;2297;51.442;6.996;2023-04-24T09:19:23;1.40;;;1.30;;
4569;SDS011;2297;51.442;6.996;2023-04-24T09:21:50;2.00;;;1.40;;
4569;SDS011;2297;51.442;6.996;2023-04-24T09:24:21;2.50;;;2.00;;
4569;SDS011;2297;51.442;6.996;2023-04-24T09:26:48;4.50;;;2.50;;
4569;SDS011;2297;51.442;6.996;2023-04-24T09:29:22;5.78;;;3.75;;
4569;SDS011;2297;51.442;6.996;2023-04-24T09:31:48;6.63;;;4.47;;
4569;SDS011;2297;51.442;6.996;2023-04-24T09:34:19;8.02;;;5.07;;
4569;SDS011;2297;51.442;6.996;2023-04-24T09:36:47;10.10;;;5.60;;
4569;SDS011;2297;51.442;6.996;2023-04-24T09:39:15;9.95;;;5.75;;
4569;SDS011;2297;51.442;6.996;2023-04-24T09:41:47;7.10;;;4.70;;
4569;SDS011;2297;51.442;6.996;2023-04-24T09:44:15;8.50;;;4.53;;
4569;SDS011;2297;51.442;6.996;2023-04-24T09:46:43;5.97;;;4.18;;
4569;SDS011;2297;51.442;6.996;2023-04-24T09:49:12;9.98;;;4.47;;
4569;SDS011;2297;51.442;6.996;2023-04-24T09:51:40;7.20;;;4.15;;
4569;SDS011;2297;51.442;6.996;2023-04-24T09:54:13;7.55;;;4.13;;
4569;SDS011;2297;51.442;6.996;2023-04-24T09:56:42;8.43;;;4.38;;
4569;SDS011;2297;51.442;6.996;2023-04-24T09:59:11;7.72;;;4.97;;
4569;SDS011;2297;51.442;6.996;2023-04-24T10:01:38;8.98;;;5.75;;
4569;SDS011;2297;51.442;6.996;2023-04-24T10:04:14;10.68;;;5.43;;
4569;SDS011;2297;51.442;6.996;2023-04-24T10:06:43;8.60;;;4.93;;
4569;SDS011;2297;51.442;6.996;2023-04-24T10:09:10;7.85;;;5.07;;
4569;SDS011;2297;51.442;6.996;2023-04-24T10:11:39;9.95;;;5.18;;
4569;SDS011;2297;51.442;6.996;2023-04-24T10:14:08;11.27;;;6.07;;
4569;SDS011;2297;51.442;6.996;2023-04-24T10:16:37;11.48;;;6.18;;
4569;SDS011;2297;51.442;6.996;2023-04-24T10:19:04;9.63;;;6.18;;
4569;SDS011;2297;51.442;6.996;2023-04-24T10:21:31;10.60;;;6.60;;
4569;SDS011;2297;51.442;6.996;2023-04-24T10:24:14;10.95;;;6.47;;
4569;SDS011;2297;51.442;6.996;2023-04-24T10:26:42;9.85;;;6.10;;
4569;SDS011;2297;51.442;6.996;2023-04-24T10:29:10;8.70;;;5.57;;
4569;SDS011;2297;51.442;6.996;2023-04-24T10:31:39;11.63;;;6.20;;
4569;SDS011;2297;51.442;6.996;2023-04-24T10:34:06;12.38;;;5.90;;
4569;SDS011;2297;51.442;6.996;2023-04-24T10:36:34;14.07;;;5.82;;
4569;SDS011;2297;51.442;6.996;2023-04-24T10:39:03;9.57;;;5.72;;
4569;SDS011;2297;51.442;6.996;2023-04-24T10:41:33;15.70;;;5.32;;
4569;SDS011;2297;51.442;6.996;2023-04-24T10:44:03;12.40;;;6.10;;
4569;SDS011;2297;51.442;6.996;2023-04-24T10:46:31;11.05;;;5.97;;
4569;SDS011;2297;51.442;6.996;2023-04-24T10:48:59;11.85;;;6.10;;
4569;SDS011;2297;51.442;6.996;2023-04-24T10:51:43;12.80;;;5.10;;
4569;SDS011;2297;51.442;6.996;2023-04-24T10:54:21;12.18;;;5.80;;
4569;SDS011;2297;51.442;6.996;2023-04-24T10:56:49;11.70;;;5.90;;
4569;SDS011;2297;51.442;6.996;2023-04-24T10:59:23;16.23;;;6.55;;
4569;SDS011;2297;51.442;6.996;2023-04-24T11:01:52;16.17;;;6.05;;
4569;SDS011;2297;51.442;6.996;2023-04-24T11:04:30;11.73;;;6.07;;
4569;SDS011;2297;51.442;6.996;2023-04-24T11:06:57;10.05;;;5.28;;
4569;SDS011;2297;51.442;6.996;2023-04-24T11:09:26;13.93;;;6.10;;
4569;SDS011;2297;51.442;6.996;2023-04-24T11:12:02;17.48;;;5.75;;
4569;SDS011;2297;51.442;6.996;2023-04-24T11:14:31;16.83;;;5.30;;
4569;SDS011;2297;51.442;6.996;2023-04-24T11:17:29;17.10;;;5.85;;
4569;SDS011;2297;51.442;6.996;2023-04-24T11:20:01;17.25;;;5.55;;
4569;SDS011;2297;51.442;6.996;2023-04-24T11:22:30;17.98;;;5.43;;
4569;SDS011;2297;51.442;6.996;2023-04-24T11:25:00;12.73;;;5.63;;
4569;SDS011;2297;51.442;6.996;2023-04-24T11:27:29;11.93;;;5.07;;
4569;SDS011;2297;51.442;6.996;2023-04-24T11:30:00;17.25;;;6.30;;
4569;SDS011;2297;51.442;6.996;2023-04-24T11:32:28;16.27;;;5.50;;
4569;SDS011;2297;51.442;6.996;2023-04-24T11:34:56;18.23;;;6.35;;
4569;SDS011;2297;51.442;6.996;2023-04-24T11:37:27;13.43;;;5.88;;
4569;SDS011;2297;51.442;6.996;2023-04-24T11:39:56;17.80;;;5.68;;
4569;SDS011;2297;51.442;6.996;2023-04-24T11:42:24;14.13;;;5.85;;
4569;SDS011;2297;51.442;6.996;2023-04-24T11:44:51;13.23;;;4.60;;
4569;SDS011;2297;51.442;6.996;2023-04-24T11:47:19;17.15;;;5.80;;
4569;SDS011;2297;51.442;6.996;2023-04-24T11:49:45;9.95;;;4.00;;
4569;SDS011;2297;51.442;6.996;2023-04-24T11:52:15;8.57;;;3.97;;
4569;SDS011;2297;51.442;6.996;2023-04-24T11:54:47;12.77;;;5.10;;
4569;SDS011;2297;51.442;6.996;2023-04-24T11:57:15;10.00;;;4.25;;
4569;SDS011;2297;51.442;6.996;2023-04-24T11:59:41;11.73;;;4.13;;
4569;SDS011;2297;51.442;6.996;2023-04-24T12:02:08;8.70;;;3.72;;
4569;SDS011;2297;51.442;6.996;2023-04-24T12:04:38;8.88;;;4.18;;
4569;SDS011;2297;51.442;6.996;2023-04-24T12:07:06;9.68;;;3.95;;
4569;SDS011;2297;51.442;6.996;2023-04-24T12:09:40;10.82;;;3.80;;
4569;SDS011;2297;51.442;6.996;2023-04-24T12:12:10;10.57;;;4.45;;
4569;SDS011;2297;51.442;6.996;2023-04-24T12:14:44;8.27;;;3.80;;
4569;SDS011;2297;51.442;6.996;2023-04-24T12:17:11;12.07;;;4.17;;
4569;SDS011;2297;51.442;6.996;2023-04-24T12:19:38;12.38;;;4.03;;
4569;SDS011;2297;51.442;6.996;2023-04-24T12:22:12;8.23;;;3.80;;
4569;SDS011;2297;51.442;6.996;2023-04-24T12:27:29;10.75;;;4.03;;
4569;SDS011;2297;51.442;6.996;2023-04-24T12:29:58;12.43;;;4.10;;
4569;SDS011;2297;51.442;6.996;2023-04-24T12:32:26;12.40;;;5.10;;
4569;SDS011;2297;51.442;6.996;2023-04-24T12:34:53;14.20;;;5.00;;
4569;SDS011;2297;51.442;6.996;2023-04-24T12:37:22;13.75;;;5.10;;
4569;SDS011;2297;51.442;6.996;2023-04-24T12:40:00;12.90;;;4.70;;
4569;SDS011;2297;51.442;6.996;2023-04-24T12:42:30;9.77;;;4.57;;
4569;SDS011;2297;51.442;6.996;2023-04-24T12:44:57;9.43;;;4.28;;
4569;SDS011;2297;51.442;6.996;2023-04-24T12:47:25;7.10;;;3.88;;
4569;SDS011;2297;51.442;6.996;2023-04-24T12:49:52;7.35;;;3.40;;
4569;SDS011;2297;51.442;6.996;2023-04-24T12:52:20;10.52;;;3.13;;
4569;SDS011;2297;51.442;6.996;2023-04-24T12:54:47;10.32;;;3.80;;
4569;SDS011;2297;51.442;6.996;2023-04-24T12:57:13;8.98;;;3.38;;
4569;SDS011;2297;51.442;6.996;2023-04-24T12:59:41;10.00;;;4.32;;
4569;SDS011;2297;51.442;6.996;2023-04-24T13:02:08;4.88;;;2.90;;
4569;SDS011;2297;51.442;6.996;2023-04-24T13:04:35;3.80;;;2.60;;
4569;SDS011;2297;51.442;6.996;2023-04-24T13:07:02;8.05;;;3.08;;
4569;SDS011;2297;51.442;6.996;2023-04-24T13:09:29;4.78;;;2.80;;
4569;SDS011;2297;51.442;6.996;2023-04-24T13:11:56;6.95;;;3.13;;
4569;SDS011;2297;51.442;6.996;2023-04-24T13:14:23;7.78;;;3.65;;
4569;SDS011;2297;51.442;6.996;2023-04-24T13:16:51;5.35;;;2.97;;
4569;SDS011;2297;51.442;6.996;2023-04-24T13:19:17;6.50;;;2.75;;
4569;SDS011;2297;51.442;6.996;2023-04-24T13:21:44;4.82;;;2.53;;
4569;SDS011;2297;51.442;6.996;2023-04-24T13:24:11;7.38;;;1.90;;
4569;SDS011;2297;51.442;6.996;2023-04-24T13:26:38;2.75;;;1.80;;
4569;SDS011;2297;51.442;6.996;2023-04-24T13:29:05;3.60;;;1.73;;
4569;SDS011;2297;51.442;6.996;2023-04-24T13:31:31;5.13;;;1.80;;
4569;SDS011;2297;51.442;6.996;2023-04-24T13:33:59;4.68;;;1.73;;
4569;SDS011;2297;51.442;6.996;2023-04-24T13:36:26;2.42;;;1.70;;
4569;SDS011;2297;51.442;6.996;2023-04-24T13:38:53;15.18;;;7.45;;
4569;SDS011;2297;51.442;6.996;2023-04-24T13:41:19;3.83;;;2.13;;
4569;SDS011;2297;51.442;6.996;2023-04-24T13:43:46;4.43;;;1.92;;
4569;SDS011;2297;51.442;6.996;2023-04-24T13:46:13;5.03;;;2.03;;
4569;SDS011;2297;51.442;6.996;2023-04-24T13:48:39;3.80;;;1.90;;
4569;SDS011;2297;51.442;6.996;2023-04-24T13:51:07;5.00;;;2.15;;
4569;SDS011;2297;51.442;6.996;2023-04-24T13:53:34;4.97;;;1.65;;
4569;SDS011;2297;51.442;6.996;2023-04-24T13:56:03;5.85;;;1.50;;
4569;SDS011;2297;51.442;6.996;2023-04-24T13:58:30;3.22;;;1.60;;
4569;SDS011;2297;51.442;6.996;2023-04-24T14:00:57;8.60;;;2.22;;
4569;SDS011;2297;51.442;6.996;2023-04-24T14:03:23;4.07;;;2.33;;
4569;SDS011;2297;51.442;6.996;2023-04-24T14:05:50;3.17;;;1.50;;
4569;SDS011;2297;51.442;6.996;2023-04-24T14:08:18;4.03;;;2.22;;
4569;SDS011;2297;51.442;6.996;2023-04-24T14:10:45;6.88;;;1.85;;
4569;SDS011;2297;51.442;6.996;2023-04-24T14:13:12;4.95;;;1.70;;
4569;SDS011;2297;51.442;6.996;2023-04-24T14:15:39;5.15;;;1.92;;
4569;SDS011;2297;51.442;6.996;2023-04-24T14:18:05;4.00;;;1.85;;
4569;SDS011;2297;51.442;6.996;2023-04-24T14:20:32;6.10;;;1.90;;
4569;SDS011;2297;51.442;6.996;2023-04-24T14:22:59;4.72;;;1.92;;
4569;SDS011;2297;51.442;6.996;2023-04-24T14:25:27;3.40;;;1.90;;
4569;SDS011;2297;51.442;6.996;2023-04-24T14:27:53;2.63;;;1.63;;
4569;SDS011;2297;51.442;6.996;2023-04-24T14:30:20;5.95;;;1.75;;
4569;SDS011;2297;51.442;6.996;2023-04-24T14:32:48;3.47;;;1.60;;
4569;SDS011;2297;51.442;6.996;2023-04-24T14:35:15;4.03;;;1.55;;
4569;SDS011;2297;51.442;6.996;2023-04-24T14:37:41;3.13;;;1.80;;
4569;SDS011;2297;51.442;6.996;2023-04-24T14:40:08;3.45;;;1.80;;
4569;SDS011;2297;51.442;6.996;2023-04-24T14:42:37;3.15;;;1.98;;
4569;SDS011;2297;51.442;6.996;2023-04-24T14:45:04;3.58;;;1.98;;
4569;SDS011;2297;51.442;6.996;2023-04-24T14:47:31;5.30;;;2.10;;
4569;SDS011;2297;51.442;6.996;2023-04-24T14:49:58;3.80;;;1.92;;
4569;SDS011;2297;51.442;6.996;2023-04-24T14:52:24;3.38;;;1.73;;
4569;SDS011;2297;51.442;6.996;2023-04-24T14:54:51;3.70;;;2.00;;
4569;SDS011;2297;51.442;6.996;2023-04-24T14:57:18;3.97;;;2.65;;
4569;SDS011;2297;51.442;6.996;2023-04-24T14:59:46;3.42;;;1.77;;
4569;SDS011;2297;51.442;6.996;2023-04-24T15:02:12;6.55;;;2.33;;
4569;SDS011;2297;51.442;6.996;2023-04-24T15:04:39;4.38;;;2.40;;
4569;SDS011;2297;51.442;6.996;2023-04-24T15:07:06;4.85;;;2.42;;
4569;SDS011;2297;51.442;6.996;2023-04-24T15:09:32;3.15;;;2.30;;
4569;SDS011;2297;51.442;6.996;2023-04-24T15:11:59;8.40;;;3.65;;
4569;SDS011;2297;51.442;6.996;2023-04-24T15:14:26;6.13;;;2.70;;
4569;SDS011;2297;51.442;6.996;2023-04-24T15:16:55;7.80;;;3.05;;
4569;SDS011;2297;51.442;6.996;2023-04-24T15:19:21;7.85;;;2.85;;